Time;durP1;ratioP1;P1;durP2;ratioP2;P2;SDS_P1;SDS_P2;PMS_P1;PMS_P2;Temp;Humidity;BMP_temperature;BMP_pressure;BME280_temperature;BME280_humidity;BME280_pressure;Samples;Min_cycle;Max_cycle;Signal;HPM_P1;HPM_P2
2023/07/08 00:02:10;;;;;;;7.25;3.42;;;18.00;99.90;;;;;;5070211;28;20174;-49
2023/07/08 00:04:36;;;;;;;7.53;3.85;;;17.90;99.90;;;;;;5069880;28;20127;-48
2023/07/08 00:07:02;;;;;;;3.28;2.97;;;17.90;99.90;;;;;;5069931;28;20505;-49
2023/07/08 00:09:27;;;;;;;6.75;3.67;;;17.80;99.90;;;;;;5070055;28;20059;-51
2023/07/08 00:11:53;;;;;;;;;;;17.80;99.90;;;;;;5070558;28;20033;-48
2023/07/08 00:14:18;;;;;;;4.28;3.30;;;17.80;99.90;;;;;;5069657;28;20013;-48
2023/07/08 00:16:44;;;;;;;7.20;3.83;;;17.80;99.90;;;;;;5070354;28;20029;-48
2023/07/08 00:19:10;;;;;;;5.18;3.40;;;17.80;99.90;;;;;;5069385;28;20036;-49
2023/07/08 00:21:36;;;;;;;7.00;3.45;;;17.70;99.90;;;;;;5070244;28;20550;-49
2023/07/08 00:24:02;;;;;;;7.10;3.50;;;17.70;99.90;;;;;;5069517;28;20076;-49
2023/07/08 00:26:30;;;;;;;5.30;3.60;;;17.70;99.90;;;;;;5069882;28;20044;-48
2023/07/08 00:28:56;;;;;;;6.47;3.30;;;17.70;99.90;;;;;;5068574;28;20048;-48
2023/07/08 00:31:25;;;;;;;6.22;3.33;;;17.70;99.90;;;;;;5070244;28;20036;-48
2023/07/08 00:33:55;;;;;;;7.80;4.07;;;17.70;99.90;;;;;;5068843;28;20037;-50
2023/07/08 00:36:22;;;;;;;5.68;3.85;;;17.70;99.90;;;;;;5069857;28;20091;-48
2023/07/08 00:38:47;;;;;;;6.68;3.50;;;17.60;99.90;;;;;;5069609;28;20051;-49
2023/07/08 00:41:25;;;;;;;6.78;3.08;;;17.60;99.90;;;;;;5069013;28;20036;-52
2023/07/08 00:43:57;;;;;;;3.95;2.90;;;17.60;99.90;;;;;;5068738;28;20082;-52
2023/07/08 00:46:31;;;;;;;8.50;3.22;;;17.60;99.90;;;;;;5069294;28;20055;-49
2023/07/08 00:49:15;;;;;;;5.38;3.47;;;17.60;99.90;;;;;;5069040;28;20498;-51
2023/07/08 00:51:41;;;;;;;7.80;3.80;;;17.50;99.90;;;;;;5069419;28;20375;-48
2023/07/08 00:54:14;;;;;;;;;;;17.50;99.90;;;;;;5069326;28;20045;-50
2023/07/08 00:56:45;;;;;;;5.03;3.92;;;17.40;99.90;;;;;;5067091;28;20381;-49
2023/07/08 00:59:23;;;;;;;4.88;4.03;;;17.50;99.90;;;;;;5069157;28;20086;-51
2023/07/08 01:01:49;;;;;;;7.80;4.05;;;17.40;99.90;;;;;;5069175;28;20090;-50
2023/07/08 01:04:21;;;;;;;5.43;3.60;;;17.40;99.90;;;;;;5068699;28;20044;-52
2023/07/08 01:06:56;;;;;;;7.32;3.95;;;17.30;99.90;;;;;;5067014;28;20395;-49
2023/07/08 01:09:26;;;;;;;6.57;4.25;;;17.40;99.90;;;;;;5067336;28;20174;-48
2023/07/08 01:11:53;;;;;;;4.75;3.85;;;17.30;99.90;;;;;;5069344;28;20024;-48
2023/07/08 01:14:21;;;;;;;7.35;3.92;;;17.30;99.90;;;;;;5068677;28;20429;-49
2023/07/08 01:16:47;;;;;;;10.32;4.22;;;17.20;99.90;;;;;;5068779;28;20605;-53
2023/07/08 01:19:17;;;;;;;6.72;3.65;;;17.20;99.90;;;;;;5068720;28;20083;-48
2023/07/08 01:22:06;;;;;;;10.90;4.35;;;17.20;99.90;;;;;;5068583;28;20115;-48
2023/07/08 01:24:35;;;;;;;9.45;3.80;;;17.20;99.90;;;;;;5061957;28;20056;-48
2023/07/08 01:27:02;;;;;;;6.03;4.57;;;17.20;99.90;;;;;;5068384;28;20576;-48
2023/07/08 01:29:28;;;;;;;7.18;4.28;;;17.10;99.90;;;;;;5068951;28;20040;-48
2023/07/08 01:32:02;;;;;;;4.57;4.10;;;17.10;99.90;;;;;;5068554;28;20036;-50
2023/07/08 01:34:29;;;;;;;7.68;4.50;;;17.10;99.90;;;;;;5066200;28;20237;-51
2023/07/08 01:36:58;;;;;;;4.20;3.80;;;17.10;99.90;;;;;;5068797;28;20118;-48
2023/07/08 01:39:25;;;;;;;5.82;3.92;;;17.10;99.90;;;;;;5068758;28;20417;-48
2023/07/08 01:41:51;;;;;;;6.93;5.22;;;17.10;99.90;;;;;;5068343;28;20036;-48
2023/07/08 01:44:37;;;;;;;9.07;4.78;;;17.00;99.90;;;;;;5068777;28;20045;-49
2023/07/08 01:47:09;;;;;;;5.93;4.07;;;17.00;99.90;;;;;;5066673;28;20055;-52
2023/07/08 01:49:36;;;;;;;5.55;4.25;;;17.00;99.90;;;;;;5068845;28;20049;-49
2023/07/08 01:52:03;;;;;;;4.80;3.88;;;16.90;99.90;;;;;;5068444;28;20401;-49
2023/07/08 01:54:28;;;;;;;6.43;5.28;;;16.90;99.90;;;;;;5068133;28;20068;-49
2023/07/08 01:56:56;;;;;;;7.15;4.80;;;16.90;99.90;;;;;;5068299;28;20064;-48
2023/07/08 01:59:21;;;;;;;7.43;5.28;;;16.90;99.90;;;;;;5068830;28;20800;-51
2023/07/08 02:01:49;;;;;;;8.07;4.57;;;16.90;99.90;;;;;;5068515;28;20043;-48
2023/07/08 02:04:15;;;;;;;4.88;4.38;;;16.90;99.90;;;;;;5066536;28;20040;-49
2023/07/08 02:06:42;;;;;;;7.30;4.40;;;16.80;99.90;;;;;;5068176;28;20400;-49
2023/07/08 02:09:07;;;;;;;5.88;4.82;;;16.80;99.90;;;;;;5068347;28;20044;-50
2023/07/08 02:11:33;;;;;;;5.70;4.63;;;16.80;99.90;;;;;;5068556;28;20520;-49
2023/07/08 02:14:00;;;;;;;5.95;4.82;;;16.70;99.90;;;;;;5066059;28;20033;-48
2023/07/08 02:16:26;;;;;;;7.05;4.57;;;16.80;99.90;;;;;;5068259;28;20036;-48
2023/07/08 02:18:51;;;;;;;6.78;4.45;;;16.70;99.90;;;;;;5068459;28;20390;-49
2023/07/08 02:21:17;;;;;;;7.22;4.75;;;16.70;99.90;;;;;;5068887;28;20459;-49
2023/07/08 02:23:46;;;;;;;;;;;16.70;99.90;;;;;;5066697;28;20106;-53
2023/07/08 02:26:11;;;;;;;12.80;4.80;;;16.70;99.90;;;;;;5066480;28;19939;-49
2023/07/08 02:28:37;;;;;;;6.38;4.90;;;16.70;99.90;;;;;;5068068;28;20521;-52
2023/07/08 02:31:03;;;;;;;8.75;4.70;;;16.60;99.90;;;;;;5067082;28;20473;-51
2023/07/08 02:33:32;;;;;;;6.43;5.25;;;16.60;99.90;;;;;;5067984;28;20384;-48
2023/07/08 02:35:59;;;;;;;8.48;4.63;;;16.60;99.90;;;;;;5067212;28;20086;-48
2023/07/08 02:38:25;;;;;;;9.63;5.57;;;16.50;99.90;;;;;;5068262;28;20371;-52
2023/07/08 02:40:50;;;;;;;9.02;4.75;;;16.50;99.90;;;;;;5067728;28;20089;-51
2023/07/08 02:43:16;;;;;;;7.70;4.70;;;16.50;99.90;;;;;;5068378;28;20032;-48
2023/07/08 02:45:41;;;;;;;7.28;5.10;;;16.50;99.90;;;;;;5067753;28;20024;-51
2023/07/08 02:48:07;;;;;;;10.45;5.18;;;16.50;99.90;;;;;;5068513;28;20154;-48
2023/07/08 02:50:33;;;;;;;4.55;4.15;;;16.40;99.90;;;;;;5068073;28;20037;-49
2023/07/08 02:52:58;;;;;;;5.78;4.90;;;16.40;99.90;;;;;;5069704;28;20037;-51
2023/07/08 02:55:24;;;;;;;6.45;4.45;;;16.40;99.90;;;;;;5070855;28;20075;-49
2023/07/08 02:57:49;;;;;;;7.03;5.07;;;16.40;99.90;;;;;;5071581;28;20029;-49
2023/07/08 03:00:15;;;;;;;6.97;4.70;;;16.40;99.90;;;;;;5071284;28;20070;-49
2023/07/08 03:02:41;;;;;;;8.55;5.38;;;16.30;99.90;;;;;;5071637;28;20033;-50
2023/07/08 03:05:07;;;;;;;6.45;4.63;;;16.30;99.90;;;;;;5071405;28;20131;-48
2023/07/08 03:07:33;;;;;;;6.75;4.18;;;16.30;99.90;;;;;;5071877;28;20037;-50
2023/07/08 03:09:59;;;;;;;4.93;4.43;;;16.30;99.90;;;;;;5070759;28;20043;-48
2023/07/08 03:12:24;;;;;;;5.55;4.30;;;16.20;99.90;;;;;;5071439;28;20040;-49
2023/07/08 03:14:50;;;;;;;5.25;4.72;;;16.20;99.90;;;;;;5071129;28;20028;-49
2023/07/08 03:17:16;;;;;;;6.03;5.07;;;16.20;99.90;;;;;;5071241;28;20071;-53
2023/07/08 03:19:42;;;;;;;8.10;4.80;;;16.20;99.90;;;;;;5070120;28;20493;-49
2023/07/08 03:22:07;;;;;;;7.97;4.88;;;16.20;99.90;;;;;;5071244;28;20294;-50
2023/07/08 03:24:33;;;;;;;6.75;5.07;;;16.10;99.90;;;;;;5070457;28;20468;-49
2023/07/08 03:27:00;;;;;;;11.85;5.40;;;16.20;99.90;;;;;;5068254;28;20405;-48
2023/07/08 03:29:26;;;;;;;10.52;4.63;;;16.20;99.90;;;;;;5071266;28;20071;-51
2023/07/08 03:31:51;;;;;;;7.35;5.43;;;16.20;99.90;;;;;;5070881;28;20086;-52
2023/07/08 03:34:17;;;;;;;9.75;5.75;;;16.10;99.90;;;;;;5070632;28;20429;-48
2023/07/08 03:36:49;;;;;;;7.25;4.32;;;16.10;99.90;;;;;;5070772;28;20047;-49
2023/07/08 03:39:19;;;;;;;5.47;4.60;;;16.10;99.90;;;;;;5070299;28;20074;-51
2023/07/08 03:41:45;;;;;;;7.47;5.50;;;16.10;99.90;;;;;;5070950;28;20047;-49
2023/07/08 03:44:12;;;;;;;8.45;5.63;;;16.10;99.90;;;;;;5070371;28;20072;-49
2023/07/08 03:46:39;;;;;;;5.97;5.00;;;16.10;99.90;;;;;;5070863;28;20099;-48
2023/07/08 03:49:05;;;;;;;9.10;5.13;;;16.10;99.90;;;;;;5070981;28;20044;-48
2023/07/08 03:51:34;;;;;;;6.40;5.25;;;16.20;99.90;;;;;;5069784;28;20068;-48
2023/07/08 03:54:00;;;;;;;8.10;5.82;;;16.10;99.90;;;;;;5070229;28;20040;-48
2023/07/08 03:56:25;;;;;;;6.75;5.38;;;16.20;99.90;;;;;;5070421;28;20310;-50
2023/07/08 03:58:51;;;;;;;5.25;4.80;;;16.20;99.90;;;;;;5069292;28;20036;-49
2023/07/08 04:01:20;;;;;;;9.75;5.40;;;16.20;99.90;;;;;;5069359;28;20044;-49
2023/07/08 04:03:47;;;;;;;5.78;4.95;;;16.20;99.90;;;;;;5069954;28;20453;-49
2023/07/08 04:06:13;;;;;;;7.68;5.18;;;16.20;99.90;;;;;;5068926;28;20128;-51
2023/07/08 04:08:39;;;;;;;7.22;4.93;;;16.10;99.90;;;;;;5070505;28;20115;-49
2023/07/08 04:11:05;;;;;;;8.70;5.07;;;16.10;99.90;;;;;;5070575;28;20116;-49
2023/07/08 04:13:32;;;;;;;7.60;5.07;;;16.10;99.90;;;;;;5068587;28;20055;-48
2023/07/08 04:16:01;;;;;;;6.57;5.47;;;16.10;99.90;;;;;;5069129;28;20081;-48
2023/07/08 04:18:26;;;;;;;11.25;6.18;;;16.20;99.90;;;;;;5069966;28;20036;-52
2023/07/08 04:20:52;;;;;;;7.18;4.80;;;16.20;99.90;;;;;;5069962;28;20035;-48
2023/07/08 04:23:19;;;;;;;7.43;4.32;;;16.20;99.90;;;;;;5070104;28;20044;-48
2023/07/08 04:25:45;;;;;;;5.80;5.00;;;16.20;99.90;;;;;;5067912;28;20074;-52
2023/07/08 04:28:11;;;;;;;5.85;5.28;;;16.20;99.90;;;;;;5069590;28;20486;-52
2023/07/08 04:30:40;;;;;;;10.80;4.93;;;16.30;99.90;;;;;;5069774;28;20118;-48
2023/07/08 04:33:07;;;;;;;6.90;5.40;;;16.30;99.90;;;;;;5069427;28;20032;-49
2023/07/08 04:35:34;;;;;;;6.20;5.03;;;16.30;99.90;;;;;;5069057;28;20443;-49
2023/07/08 04:38:09;;;;;;;9.00;5.18;;;16.30;99.90;;;;;;5069461;28;20063;-49
2023/07/08 04:40:39;;;;;;;7.22;4.50;;;16.30;99.90;;;;;;5069555;28;20059;-48
2023/07/08 04:43:12;;;;;;;7.25;4.50;;;16.40;99.90;;;;;;5067723;28;20040;-51
2023/07/08 04:45:44;;;;;;;6.10;5.47;;;16.40;99.90;;;;;;5068458;28;20040;-49
2023/07/08 04:48:14;;;;;;;7.50;5.05;;;16.50;99.90;;;;;;5068330;28;20037;-50
2023/07/08 04:50:42;;;;;;;6.97;5.45;;;16.50;99.90;;;;;;5069343;28;20094;-49
2023/07/08 04:53:07;;;;;;;6.32;5.25;;;16.50;99.90;;;;;;5067909;28;20033;-49
2023/07/08 04:55:35;;;;;;;6.80;5.07;;;16.60;99.90;;;;;;5068919;28;20029;-52
2023/07/08 04:58:01;;;;;;;7.85;4.93;;;16.60;99.90;;;;;;5069346;28;20032;-48
2023/07/08 05:00:27;;;;;;;5.97;4.93;;;16.60;99.90;;;;;;5069316;28;20040;-52
2023/07/08 05:02:54;;;;;;;5.70;4.63;;;16.70;99.90;;;;;;5069428;28;20055;-51
2023/07/08 05:05:19;;;;;;;;;;;16.80;99.90;;;;;;5066626;28;20493;-52
2023/07/08 05:07:45;;;;;;;6.82;5.07;;;16.80;99.90;;;;;;5068987;28;19924;-53
2023/07/08 05:10:11;;;;;;;11.98;6.10;;;16.90;99.90;;;;;;5069131;28;20045;-48
2023/07/08 05:12:37;;;;;;;6.88;5.25;;;16.90;99.90;;;;;;5069354;28;20024;-48
2023/07/08 05:15:03;;;;;;;5.60;4.47;;;17.00;99.90;;;;;;5067869;28;20044;-49
2023/07/08 05:17:29;;;;;;;7.35;5.38;;;17.10;99.90;;;;;;5068653;28;20576;-50
2023/07/08 05:19:57;;;;;;;12.23;5.75;;;17.20;99.90;;;;;;5068999;28;20127;-48
2023/07/08 05:22:25;;;;;;;7.82;5.13;;;17.30;99.90;;;;;;5069052;28;20036;-49
2023/07/08 05:24:52;;;;;;;13.27;5.35;;;17.40;99.90;;;;;;5069141;28;20037;-49
2023/07/08 05:27:19;;;;;;;5.45;4.32;;;17.50;99.90;;;;;;5066987;28;20090;-53
2023/07/08 05:29:46;;;;;;;7.45;4.95;;;17.60;99.90;;;;;;5069175;28;20522;-50
2023/07/08 05:32:12;;;;;;;6.85;5.00;;;17.80;99.90;;;;;;5068992;28;20032;-50
2023/07/08 05:34:37;;;;;;;7.65;5.10;;;17.80;99.90;;;;;;5068505;28;20035;-49
2023/07/08 05:37:03;;;;;;;6.15;5.13;;;17.90;99.90;;;;;;5068523;28;20079;-49
2023/07/08 05:39:30;;;;;;;11.05;4.63;;;18.00;99.90;;;;;;5068657;28;20059;-49
2023/07/08 05:41:56;;;;;;;6.35;4.72;;;18.10;99.90;;;;;;5068107;28;20040;-50
2023/07/08 05:44:22;;;;;;;6.78;4.47;;;18.20;99.90;;;;;;5068707;28;20048;-49
2023/07/08 05:46:49;;;;;;;5.47;4.20;;;18.30;99.90;;;;;;5068723;28;20453;-49
2023/07/08 05:49:14;;;;;;;6.47;4.18;;;18.40;99.90;;;;;;5068668;28;20044;-49
2023/07/08 05:51:40;;;;;;;7.60;4.80;;;18.50;99.90;;;;;;5068566;28;20089;-49
2023/07/08 05:54:05;;;;;;;6.72;4.13;;;18.60;99.90;;;;;;5068772;28;20032;-53
2023/07/08 05:56:31;;;;;;;5.53;4.25;;;18.60;99.90;;;;;;5069554;28;20035;-48
2023/07/08 05:58:57;;;;;;;7.25;4.25;;;18.70;99.90;;;;;;5069320;28;20052;-49
2023/07/08 06:01:22;;;;;;;4.40;4.00;;;18.80;99.90;;;;;;5068829;28;20436;-51
2023/07/08 06:03:48;;;;;;;;;;;18.90;99.90;;;;;;5068324;28;20045;-49
2023/07/08 06:06:13;;;;;;;8.07;4.03;;;19.00;99.90;;;;;;5060321;28;19917;-48
2023/07/08 06:08:39;;;;;;;3.90;3.50;;;19.00;99.90;;;;;;5064525;28;20032;-48
2023/07/08 06:11:05;;;;;;;5.57;4.40;;;19.10;99.90;;;;;;5059367;28;20035;-50
2023/07/08 06:13:31;;;;;;;4.90;4.03;;;19.20;99.90;;;;;;5067715;28;20055;-54
2023/07/08 06:15:56;;;;;;;6.05;3.63;;;19.30;99.90;;;;;;5067328;28;20037;-50
2023/07/08 06:18:22;;;;;;;6.07;4.15;;;19.40;99.90;;;;;;5065072;28;20033;-49
2023/07/08 06:20:55;;;;;;;5.53;3.83;;;19.50;99.90;;;;;;5064202;28;20517;-50
2023/07/08 06:23:21;;;;;;;6.00;4.03;;;19.50;99.90;;;;;;5066909;28;20037;-49
2023/07/08 06:25:47;;;;;;;6.97;3.85;;;19.60;99.90;;;;;;5068141;28;20044;-54
2023/07/08 06:28:12;;;;;;;;;;;19.70;99.90;;;;;;5063519;28;20121;-47
2023/07/08 06:30:38;;;;;;;6.93;3.80;;;19.80;99.90;;;;;;5072907;28;19970;-49
2023/07/08 06:33:03;;;;;;;;;;;19.90;99.90;;;;;;5072910;28;20024;-49
2023/07/08 06:35:29;;;;;;;6.38;3.95;;;20.00;99.90;;;;;;5071647;28;19991;-49
2023/07/08 06:37:55;;;;;;;;;;;20.00;99.90;;;;;;5068364;28;20186;-52
2023/07/08 06:40:20;;;;;;;6.45;3.67;;;20.10;99.90;;;;;;5066277;28;19960;-48
2023/07/08 06:42:46;;;;;;;;;;;20.20;99.90;;;;;;5066585;28;20050;-52
2023/07/08 06:45:12;;;;;;;3.83;3.50;;;20.30;99.90;;;;;;5072072;28;20151;-49
2023/07/08 06:47:37;;;;;;;;;;;20.50;99.90;;;;;;5062605;28;20036;-53
2023/07/08 06:50:04;;;;;;;3.50;3.20;;;20.60;99.90;;;;;;5060251;28;20293;-52
2023/07/08 06:52:34;;;;;;;21.60;3.67;;;20.70;99.90;;;;;;5071384;28;20103;-53
2023/07/08 06:55:01;;;;;;;9.32;3.10;;;20.80;99.90;;;;;;5069978;28;20044;-48
2023/07/08 06:57:28;;;;;;;7.90;3.45;;;20.80;99.90;;;;;;5060210;28;20033;-51
2023/07/08 06:59:53;;;;;;;4.35;3.20;;;20.90;99.90;;;;;;5064671;28;20086;-51
2023/07/08 07:02:19;;;;;;;;;;;21.10;99.90;;;;;;5061803;28;20037;-52
2023/07/08 07:04:45;;;;;;;10.93;3.38;;;21.10;99.90;;;;;;5062187;28;19932;-53
2023/07/08 07:07:11;;;;;;;;;;;21.20;99.90;;;;;;5068870;28;20033;-51
2023/07/08 07:09:37;;;;;;;3.90;3.03;;;21.30;99.90;;;;;;5067760;28;19943;-48
2023/07/08 07:12:02;;;;;;;;;;;21.40;99.90;;;;;;5071960;28;20115;-48
2023/07/08 07:14:28;;;;;;;6.95;3.08;;;21.50;99.90;;;;;;5063893;28;19993;-53
2023/07/08 07:16:54;;;;;;;10.30;3.00;;;21.50;99.90;;;;;;5069317;28;20040;-49
2023/07/08 07:19:21;;;;;;;;;;;21.60;99.90;;;;;;5068702;28;20642;-49
2023/07/08 07:21:47;;;;;;;7.80;3.42;;;21.80;99.90;;;;;;5065766;28;20285;-50
2023/07/08 07:24:12;;;;;;;;;;;21.90;99.90;;;;;;5068225;28;20045;-49
2023/07/08 07:26:38;;;;;;;4.57;2.80;;;21.90;99.90;;;;;;5069405;28;19917;-49
2023/07/08 07:29:04;;;;;;;;;;;22.00;99.90;;;;;;5072250;28;20562;-52
2023/07/08 07:31:29;;;;;;;6.00;2.65;;;22.10;99.60;;;;;;5071838;28;20284;-49
2023/07/08 07:33:56;;;;;;;;;;;22.20;99.60;;;;;;5069357;28;20033;-50
2023/07/08 07:36:21;;;;;;;11.90;3.13;;;22.30;98.90;;;;;;5071448;28;19927;-48
2023/07/08 07:38:47;;;;;;;;;;;22.40;99.90;;;;;;5058088;28;20037;-54
2023/07/08 07:41:13;;;;;;;4.22;2.53;;;22.50;99.50;;;;;;5061307;28;19940;-51
2023/07/08 07:43:38;;;;;;;4.75;2.45;;;22.60;99.80;;;;;;5066628;28;20112;-50
2023/07/08 07:46:05;;;;;;;;;;;22.70;99.30;;;;;;5070983;28;20036;-52
2023/07/08 07:48:31;;;;;;;4.57;2.65;;;22.90;99.20;;;;;;5071453;28;19962;-48
2023/07/08 07:50:57;;;;;;;6.05;2.20;;;23.00;99.20;;;;;;5071009;28;20485;-49
2023/07/08 07:53:23;;;;;;;;;;;23.10;99.10;;;;;;5072036;28;20082;-49
2023/07/08 07:55:59;;;;;;;5.30;2.53;;;23.20;98.00;;;;;;5071109;28;19923;-51
2023/07/08 07:58:25;;;;;;;2.83;2.28;;;23.20;98.10;;;;;;5069945;28;20039;-51
2023/07/08 08:00:50;;;;;;;4.05;2.60;;;23.30;98.60;;;;;;5067927;28;20111;-51
2023/07/08 08:03:16;;;;;;;7.15;2.22;;;23.40;98.30;;;;;;5071201;28;20040;-50
2023/07/08 08:05:42;;;;;;;2.97;2.13;;;23.50;98.20;;;;;;5065923;28;20044;-49
2023/07/08 08:08:08;;;;;;;10.57;3.15;;;23.60;97.80;;;;;;5071592;28;20143;-48
2023/07/08 08:10:35;;;;;;;5.22;2.40;;;23.50;97.00;;;;;;5071050;28;20047;-48
2023/07/08 08:13:02;;;;;;;3.80;2.45;;;23.60;97.10;;;;;;5071161;28;20041;-51
2023/07/08 08:15:28;;;;;;;3.88;2.40;;;23.70;96.70;;;;;;5068915;28;20096;-48
2023/07/08 08:17:54;;;;;;;2.97;2.67;;;23.80;97.30;;;;;;5055339;28;20033;-49
2023/07/08 08:20:22;;;;;;;4.05;2.10;;;23.90;96.70;;;;;;5052343;28;20059;-48
2023/07/08 08:22:48;;;;;;;4.15;2.20;;;24.00;96.70;;;;;;5064291;28;20037;-48
2023/07/08 08:25:18;;;;;;;3.50;2.33;;;24.00;96.50;;;;;;5062026;28;20170;-52
2023/07/08 08:27:44;;;;;;;8.40;2.80;;;24.10;96.20;;;;;;5062869;28;20499;-48
2023/07/08 08:30:10;;;;;;;3.92;2.03;;;24.00;96.00;;;;;;5070669;28;20138;-51
2023/07/08 08:32:36;;;;;;;3.83;2.55;;;23.90;96.80;;;;;;5057887;28;20116;-55
2023/07/08 08:35:02;;;;;;;4.10;2.53;;;23.90;96.80;;;;;;5067740;28;20171;-52
2023/07/08 08:37:28;;;;;;;5.25;2.10;;;23.90;96.70;;;;;;5070775;28;20266;-48
2023/07/08 08:39:53;;;;;;;2.75;2.35;;;23.90;96.70;;;;;;5064116;28;20040;-51
2023/07/08 08:42:39;;;;;;;2.63;2.03;;;24.00;97.10;;;;;;5069665;28;20036;-51
2023/07/08 08:45:07;;;;;;;7.53;2.30;;;24.10;96.40;;;;;;5068025;28;20079;-49
2023/07/08 08:47:43;;;;;;;5.28;2.00;;;24.20;96.50;;;;;;5068626;28;20051;-53
2023/07/08 08:50:18;;;;;;;15.52;2.83;;;24.30;96.30;;;;;;5069812;28;20041;-52
2023/07/08 08:52:44;;;;;;;6.63;2.10;;;24.40;96.90;;;;;;5070341;28;20036;-49
2023/07/08 08:55:14;;;;;;;3.30;2.20;;;24.60;96.10;;;;;;5070211;28;20032;-49
2023/07/08 08:58:06;;;;;;;2.78;1.95;;;24.70;96.20;;;;;;5070148;28;20044;-50
2023/07/08 09:00:54;;;;;;;3.95;2.10;;;24.90;95.90;;;;;;5062090;28;20056;-55
2023/07/08 09:03:46;;;;;;;3.80;2.15;;;25.00;95.30;;;;;;5069063;28;20048;-49
2023/07/08 09:06:24;;;;;;;7.15;2.25;;;25.10;95.00;;;;;;5069895;28;20072;-51
2023/07/08 09:08:51;;;;;;;5.32;2.08;;;25.20;94.80;;;;;;5068060;28;20052;-49
2023/07/08 09:11:30;;;;;;;9.25;2.05;;;25.30;94.90;;;;;;5062584;28;20043;-49
2023/07/08 09:13:56;;;;;;;4.75;1.85;;;25.40;94.90;;;;;;5066154;28;20032;-52
2023/07/08 09:16:44;;;;;;;2.05;1.92;;;25.50;94.80;;;;;;5061624;28;20523;-50
2023/07/08 09:19:19;;;;;;;4.20;2.03;;;25.60;94.80;;;;;;5058753;28;20103;-54
2023/07/08 09:21:53;;;;;;;5.00;2.30;;;25.80;94.30;;;;;;5063005;28;20113;-50
2023/07/08 09:24:24;;;;;;;5.43;2.38;;;25.90;95.00;;;;;;5058566;28;20079;-53
2023/07/08 09:26:51;;;;;;;5.00;2.33;;;26.00;93.70;;;;;;5057131;28;20041;-54
2023/07/08 09:29:18;;;;;;;2.65;2.15;;;26.20;93.80;;;;;;5057624;28;20383;-54
2023/07/08 09:31:43;;;;;;;2.42;2.22;;;26.30;94.40;;;;;;5061492;28;20447;-51
2023/07/08 09:34:12;;;;;;;7.65;2.38;;;26.30;93.80;;;;;;5063330;28;20068;-53
2023/07/08 09:36:43;;;;;;;3.50;2.05;;;26.40;93.20;;;;;;5062216;28;20032;-55
2023/07/08 09:39:17;;;;;;;4.05;1.92;;;26.50;93.50;;;;;;5062217;28;20049;-53
2023/07/08 09:41:44;;;;;;;4.85;2.40;;;26.70;93.10;;;;;;5058962;28;20037;-52
2023/07/08 09:44:31;;;;;;;11.75;2.63;;;26.80;92.90;;;;;;5056447;28;20482;-52
2023/07/08 09:46:58;;;;;;;;;;;26.80;92.70;;;;;;5053853;28;20045;-54
2023/07/08 09:49:35;;;;;;;2.15;1.95;;;27.00;93.00;;;;;;5056035;28;20143;-50
2023/07/08 09:52:04;;;;;;;6.25;2.17;;;27.10;92.80;;;;;;5059226;28;20071;-51
2023/07/08 09:54:32;;;;;;;5.28;2.28;;;27.10;92.00;;;;;;5057197;28;20036;-53
2023/07/08 09:57:15;;;;;;;3.88;2.35;;;27.20;92.80;;;;;;5061641;28;20083;-51
2023/07/08 09:59:52;;;;;;;2.10;1.90;;;27.40;91.90;;;;;;5057990;28;20068;-56
2023/07/08 10:02:20;;;;;;;5.72;2.30;;;27.40;92.30;;;;;;5070640;28;20553;-51
2023/07/08 10:04:45;;;;;;;6.68;2.53;;;27.40;92.10;;;;;;5073645;28;20044;-51
2023/07/08 10:07:16;;;;;;;4.47;1.92;;;27.50;91.90;;;;;;5068217;28;20040;-52
2023/07/08 10:09:42;;;;;;;7.10;1.90;;;27.70;91.50;;;;;;5067995;28;20036;-53
2023/07/08 10:12:12;;;;;;;3.15;2.00;;;27.80;91.50;;;;;;5056059;28;20516;-50
2023/07/08 10:14:49;;;;;;;4.60;2.25;;;27.80;91.00;;;;;;5072668;28;20029;-49
2023/07/08 10:17:18;;;;;;;3.17;2.13;;;27.90;90.90;;;;;;5073645;28;20070;-52
2023/07/08 10:19:44;;;;;;;4.95;2.03;;;28.00;91.30;;;;;;5073550;28;20043;-50
2023/07/08 10:22:30;;;;;;;4.05;1.92;;;28.10;91.50;;;;;;5073686;28;20044;-51
2023/07/08 10:25:21;;;;;;;6.00;2.22;;;28.20;91.50;;;;;;5053230;28;20037;-51
2023/07/08 10:28:11;;;;;;;2.67;1.70;;;28.20;90.00;;;;;;5066966;28;20056;-51
2023/07/08 10:30:55;;;;;;;2.97;1.90;;;28.30;90.10;;;;;;5066457;28;20032;-50
2023/07/08 10:33:48;;;;;;;3.47;1.55;;;28.40;89.70;;;;;;5070830;28;20048;-51
2023/07/08 10:36:24;;;;;;;4.70;2.20;;;28.50;88.90;;;;;;5071258;28;20036;-50
2023/07/08 10:39:14;;;;;;;7.85;2.15;;;28.50;87.60;;;;;;5065397;28;20135;-50
2023/07/08 10:42:17;;;;;;;2.88;1.70;;;28.50;88.20;;;;;;5067997;28;20549;-50
2023/07/08 10:44:46;;;;;;;4.97;2.75;;;28.60;87.60;;;;;;5067014;28;20033;-54
2023/07/08 10:47:47;;;;;;;7.00;2.15;;;28.70;88.00;;;;;;5070948;28;21297;-50
2023/07/08 10:50:21;;;;;;;6.68;1.70;;;28.90;88.10;;;;;;5069122;28;20474;-50
2023/07/08 10:53:14;;;;;;;8.05;2.20;;;29.10;86.70;;;;;;5070123;28;20062;-51
2023/07/08 10:56:03;;;;;;;2.70;1.83;;;29.10;85.10;;;;;;5063490;28;20041;-52
2023/07/08 10:58:49;;;;;;;5.95;2.45;;;29.20;84.90;;;;;;5069503;28;20040;-50
2023/07/08 11:02:08;;;;;;;4.82;1.77;;;29.30;83.90;;;;;;5067157;28;20041;-52
2023/07/08 11:04:49;;;;;;;2.47;1.98;;;29.40;82.80;;;;;;5008054;28;20073;-50
2023/07/08 11:07:27;;;;;;;2.20;2.00;;;29.60;82.20;;;;;;5069607;28;20133;-50
2023/07/08 11:09:57;;;;;;;3.58;2.28;;;29.70;81.00;;;;;;5067200;28;20037;-53
2023/07/08 11:12:28;;;;;;;5.07;2.42;;;29.70;82.80;;;;;;5071132;28;20043;-53
2023/07/08 11:15:17;;;;;;;4.60;2.42;;;29.80;84.40;;;;;;5064841;28;20033;-51
2023/07/08 11:17:55;;;;;;;4.25;2.30;;;29.90;78.60;;;;;;5069475;28;20214;-51
2023/07/08 11:20:25;;;;;;;5.43;2.53;;;30.00;80.10;;;;;;5070346;28;20075;-52
2023/07/08 11:23:30;;;;;;;7.90;2.95;;;30.10;78.50;;;;;;5071090;28;20040;-53
2023/07/08 11:26:24;;;;;;;3.17;2.15;;;30.10;75.50;;;;;;5064086;28;20056;-51
2023/07/08 11:28:53;;;;;;;3.47;2.75;;;30.20;76.70;;;;;;5069276;28;20054;-50
2023/07/08 11:31:19;;;;;;;11.65;3.20;;;30.20;75.00;;;;;;5070005;28;20115;-54
2023/07/08 11:33:46;;;;;;;2.90;2.65;;;30.30;74.00;;;;;;5066238;28;20139;-58
2023/07/08 11:36:14;;;;;;;5.30;2.90;;;30.30;75.60;;;;;;5066056;28;20060;-54
2023/07/08 11:38:48;;;;;;;6.03;3.00;;;30.40;74.50;;;;;;5068283;28;20090;-51
2023/07/08 11:41:17;;;;;;;4.72;2.63;;;30.40;74.20;;;;;;5068164;28;20039;-53
2023/07/08 11:43:50;;;;;;;5.90;3.80;;;30.50;76.00;;;;;;5062763;28;20047;-53
2023/07/08 11:46:28;;;;;;;6.55;3.47;;;30.60;73.00;;;;;;5059577;28;20040;-52
2023/07/08 11:48:56;;;;;;;4.60;2.42;;;30.60;71.90;;;;;;5068279;28;20389;-52
2023/07/08 11:51:28;;;;;;;6.88;2.60;;;30.60;71.70;;;;;;5063469;28;20489;-50
2023/07/08 11:54:03;;;;;;;3.35;3.05;;;30.50;70.90;;;;;;5067219;28;20044;-51
2023/07/08 11:57:05;;;;;;;4.32;2.97;;;30.60;73.10;;;;;;5065712;28;20047;-49
2023/07/08 11:59:36;;;;;;;5.72;3.30;;;30.60;71.20;;;;;;5065209;28;20497;-52
2023/07/08 12:02:03;;;;;;;6.60;3.70;;;30.70;72.40;;;;;;5065953;28;20893;-49
2023/07/08 12:04:35;;;;;;;11.57;3.83;;;30.70;71.40;;;;;;5062388;28;20044;-52
2023/07/08 12:07:12;;;;;;;4.15;3.60;;;30.90;70.40;;;;;;5068634;28;20551;-51
2023/07/08 12:09:46;;;;;;;5.25;3.55;;;31.00;71.40;;;;;;5061858;28;20040;-50
2023/07/08 12:12:29;;;;;;;5.13;3.92;;;31.10;69.90;;;;;;5065492;28;20029;-52
2023/07/08 12:15:04;;;;;;;8.60;3.22;;;31.20;70.80;;;;;;5065383;28;20120;-51
2023/07/08 12:17:31;;;;;;;6.32;3.53;;;31.40;70.70;;;;;;5060624;28;20043;-50
2023/07/08 12:20:00;;;;;;;8.20;3.97;;;31.40;70.10;;;;;;5064591;28;20064;-51
2023/07/08 12:22:25;;;;;;;8.60;3.20;;;31.50;69.50;;;;;;5066390;28;20093;-50
2023/07/08 12:24:51;;;;;;;6.43;3.75;;;31.40;67.50;;;;;;5065297;28;20032;-49
2023/07/08 12:27:17;;;;;;;3.58;3.28;;;31.40;67.10;;;;;;5066368;28;20459;-53
2023/07/08 12:29:42;;;;;;;5.75;3.25;;;31.50;67.50;;;;;;5064835;28;20124;-52
2023/07/08 12:32:12;;;;;;;5.20;3.50;;;31.60;68.40;;;;;;5065446;28;20225;-51
2023/07/08 12:34:38;;;;;;;5.07;3.80;;;31.70;67.20;;;;;;5064577;28;20043;-51
2023/07/08 12:37:04;;;;;;;6.65;3.40;;;31.70;67.60;;;;;;5068682;28;20036;-50
2023/07/08 12:39:34;;;;;;;5.97;4.00;;;31.70;67.50;;;;;;5065693;28;20371;-52
2023/07/08 12:42:00;;;;;;;6.72;4.35;;;31.70;64.00;;;;;;5066321;28;20036;-51
2023/07/08 12:44:26;;;;;;;4.10;3.72;;;31.80;65.00;;;;;;5068365;28;20400;-55
2023/07/08 12:46:54;;;;;;;4.88;3.55;;;31.90;65.50;;;;;;5068844;28;20059;-52
2023/07/08 12:49:20;;;;;;;4.45;3.88;;;31.90;65.20;;;;;;5066847;28;20084;-53
2023/07/08 12:51:47;;;;;;;5.50;3.95;;;31.90;64.30;;;;;;5064951;28;20039;-52
2023/07/08 12:54:13;;;;;;;6.05;4.05;;;32.00;65.00;;;;;;5069063;28;20040;-52
2023/07/08 12:56:44;;;;;;;6.35;3.97;;;32.10;64.00;;;;;;5066494;28;20040;-53
2023/07/08 12:59:20;;;;;;;6.28;3.75;;;32.10;63.00;;;;;;5061734;28;20080;-55
2023/07/08 13:01:47;;;;;;;5.80;3.92;;;32.10;62.40;;;;;;5064962;28;20059;-54
2023/07/08 13:04:13;;;;;;;3.78;3.45;;;32.10;64.20;;;;;;5060352;28;20076;-52